Time;durP1;ratioP1;P1;durP2;ratioP2;P2;SDS_P1;SDS_P2;PMS_P1;PMS_P2;Temp;Humidity;BMP_temperature;BMP_pressure;BME280_temperature;BME280_humidity;BME280_pressure;Samples;Min_cycle;Max_cycle;Signal;HPM_P1;HPM_P2
2023/05/27 00:00:50;;;;;;;7.40;6.70;;;;;;;14.33;90.95;97454.63;110110;1241;68746;-69
2023/05/27 00:03:29;;;;;;;7.00;6.10;;;;;;;14.23;90.53;97455.27;110062;1241;69633;-69
2023/05/27 00:06:01;;;;;;;6.90;6.20;;;;;;;14.15;92.03;97456.98;110158;1245;59887;-69
2023/05/27 00:08:32;;;;;;;6.40;5.70;;;;;;;14.08;91.99;97455.39;110120;1243;59623;-69
2023/05/27 00:11:01;;;;;;;7.80;6.40;;;;;;;14.02;90.92;97452.88;110113;1241;72272;-69
2023/05/27 00:13:30;;;;;;;7.80;6.50;;;;;;;13.97;92.95;97452.96;110149;1243;68464;-69
2023/05/27 00:15:59;;;;;;;8.50;6.60;;;;;;;13.91;90.67;97448.63;110306;1241;69258;-69
2023/05/27 00:18:32;;;;;;;6.60;5.60;;;;;;;13.84;96.23;97443.27;110212;1247;59760;-69
2023/05/27 00:21:01;;;;;;;8.00;6.70;;;;;;;13.77;97.69;97442.77;110156;1241;59747;-69
2023/05/27 00:23:32;;;;;;;7.60;6.30;;;;;;;13.73;97.06;97443.08;110130;1244;71472;-70
2023/05/27 00:26:02;;;;;;;;;;;;;;;13.69;94.96;97441.14;110133;1244;68557;-69
2023/05/27 00:28:33;;;;;;;11.30;7.10;;;;;;;13.67;99.24;97436.23;110114;1244;67537;-69
2023/05/27 00:31:04;;;;;;;9.40;6.90;;;;;;;13.66;99.64;97435.31;110080;1244;59702;-69
2023/05/27 00:33:33;;;;;;;7.80;6.90;;;;;;;13.62;99.13;97431.41;110114;1243;59675;-69
2023/05/27 00:36:03;;;;;;;9.60;8.10;;;;;;;13.59;99.82;97430.68;110123;1242;71430;-69
2023/05/27 00:38:31;;;;;;;8.70;7.80;;;;;;;13.51;100.00;97431.43;110135;1244;69137;-68
2023/05/27 00:41:03;;;;;;;10.00;7.30;;;;;;;13.46;100.00;97428.39;110091;1245;69328;-69
2023/05/27 00:43:32;;;;;;;9.20;7.70;;;;;;;13.43;100.00;97434.76;110114;1244;59724;-70
2023/05/27 00:46:01;;;;;;;13.40;9.70;;;;;;;13.40;100.00;97433.48;110094;1244;59633;-69
2023/05/27 00:48:31;;;;;;;12.30;10.80;;;;;;;13.38;100.00;97434.15;110123;1244;71323;-70
2023/05/27 00:51:00;;;;;;;13.40;11.40;;;;;;;13.37;100.00;97430.02;110152;1244;69288;-69
2023/05/27 00:53:39;;;;;;;14.30;11.80;;;;;;;13.39;100.00;97425.72;109782;1248;67505;-70
2023/05/27 00:56:12;;;;;;;14.30;11.90;;;;;;;13.40;100.00;97423.83;110055;1244;59689;-71
2023/05/27 00:58:42;;;;;;;11.70;10.40;;;;;;;13.42;100.00;97419.98;110167;1244;59763;-69
2023/05/27 01:01:12;;;;;;;;;;;;;;;13.47;100.00;97422.20;109835;1246;71337;-69
2023/05/27 01:03:41;;;;;;;12.00;10.30;;;;;;;13.51;100.00;97423.77;110099;1244;69210;-68
2023/05/27 01:06:39;;;;;;;11.50;10.30;;;;;;;13.55;100.00;97423.42;109835;1246;69232;-71
2023/05/27 01:09:20;;;;;;;12.60;10.90;;;;;;;13.61;100.00;97419.98;110122;1242;59698;-71
2023/05/27 01:12:16;;;;;;;12.60;10.60;;;;;;;13.65;100.00;97419.24;109894;1247;59688;-68
2023/05/27 01:14:52;;;;;;;12.30;10.90;;;;;;;13.70;100.00;97421.95;110122;1247;71236;-70
2023/05/27 01:17:24;;;;;;;13.10;10.50;;;;;;;13.74;100.00;97421.99;110124;1241;68399;-70
2023/05/27 01:19:54;;;;;;;10.50;9.00;;;;;;;13.76;99.80;97423.41;109881;1245;68429;-70
2023/05/27 01:22:28;;;;;;;10.20;8.50;;;;;;;13.73;98.97;97423.33;110516;1244;59739;-70
2023/05/27 01:24:57;;;;;;;10.20;9.00;;;;;;;13.66;99.28;97426.50;110209;1241;59685;-70
2023/05/27 01:27:26;;;;;;;10.40;8.10;;;;;;;13.62;99.71;97425.45;110177;1244;71312;-70
2023/05/27 01:29:56;;;;;;;9.10;8.20;;;;;;;13.57;99.44;97424.30;110123;1244;68519;-70
2023/05/27 01:32:35;;;;;;;8.70;7.80;;;;;;;13.51;98.72;97422.25;110089;1241;69324;-67
2023/05/27 01:35:24;;;;;;;9.60;7.80;;;;;;;13.43;99.58;97419.73;110154;1243;59670;-69
2023/05/27 01:37:56;;;;;;;11.00;8.40;;;;;;;13.38;98.66;97418.64;109971;1244;59725;-70
2023/05/27 01:40:28;;;;;;;8.90;7.90;;;;;;;13.35;100.00;97416.71;109785;1245;70691;-69
2023/05/27 01:43:00;;;;;;;9.10;8.10;;;;;;;13.34;100.00;97419.11;109777;1244;68893;-68
2023/05/27 01:45:31;;;;;;;10.40;8.30;;;;;;;13.35;100.00;97420.55;110057;1244;69313;-69
2023/05/27 01:48:02;;;;;;;11.60;9.00;;;;;;;13.37;100.00;97418.81;110082;1244;59677;-70
2023/05/27 01:50:33;;;;;;;10.80;8.20;;;;;;;13.37;100.00;97418.48;110130;1241;59755;-71
2023/05/27 01:53:03;;;;;;;11.60;9.40;;;;;;;13.37;100.00;97416.92;110109;1244;71387;-68
2023/05/27 01:55:32;;;;;;;9.40;8.20;;;;;;;13.37;100.00;97415.74;109764;1246;68246;-69
2023/05/27 01:58:02;;;;;;;10.20;8.50;;;;;;;13.36;100.00;97411.09;110100;1244;69445;-70
2023/05/27 02:00:32;;;;;;;8.70;7.80;;;;;;;13.34;100.00;97412.92;109814;1245;59804;-70
2023/05/27 02:03:00;;;;;;;9.70;8.60;;;;;;;13.36;100.00;97414.42;109823;1242;59712;-68
2023/05/27 02:05:30;;;;;;;;;;;;;;;13.38;100.00;97411.62;109842;1245;71498;-69
2023/05/27 02:08:01;;;;;;;11.00;9.00;;;;;;;13.38;100.00;97410.38;110130;1241;69214;-69
2023/05/27 02:10:31;;;;;;;10.10;8.80;;;;;;;13.36;100.00;97410.15;109749;1248;69272;-70
2023/05/27 02:13:01;;;;;;;11.50;9.80;;;;;;;13.34;100.00;97405.27;110116;1243;59710;-70
2023/05/27 02:15:31;;;;;;;9.90;8.80;;;;;;;13.33;100.00;97401.38;109877;1243;59675;-69
2023/05/27 02:18:01;;;;;;;10.60;9.10;;;;;;;13.30;99.97;97398.47;110126;1241;71415;-69
2023/05/27 02:20:31;;;;;;;11.90;8.60;;;;;;;13.23;99.59;97397.23;110125;1242;68561;-70
2023/05/27 02:23:04;;;;;;;9.40;8.40;;;;;;;13.16;100.00;97394.82;110164;1244;68563;-69
2023/05/27 02:25:33;;;;;;;12.10;9.30;;;;;;;13.10;99.93;97393.39;110157;1241;59728;-69
2023/05/27 02:28:02;;;;;;;11.30;8.40;;;;;;;13.03;100.00;97389.45;110252;1241;59676;-70
2023/05/27 02:30:33;;;;;;;10.00;8.50;;;;;;;12.98;100.00;97388.44;109878;1241;71860;-69
2023/05/27 02:33:04;;;;;;;11.60;9.90;;;;;;;12.94;100.00;97389.99;110002;1248;69276;-70
2023/05/27 02:35:34;;;;;;;11.00;9.30;;;;;;;12.90;100.00;97388.25;110162;1241;69309;-70
2023/05/27 02:38:03;;;;;;;10.80;9.70;;;;;;;12.86;100.00;97387.72;110150;1245;59712;-70
2023/05/27 02:40:33;;;;;;;11.50;10.10;;;;;;;12.82;100.00;97383.14;110164;1242;59677;-70
2023/05/27 02:43:02;;;;;;;11.90;10.10;;;;;;;12.80;100.00;97388.52;110155;1244;70949;-70
2023/05/27 02:45:32;;;;;;;;;;;;;;;12.78;100.00;97383.84;110114;1241;68441;-70
2023/05/27 02:48:01;;;;;;;12.30;10.40;;;;;;;12.75;100.00;97382.16;109754;1246;68809;-70
2023/05/27 02:50:31;;;;;;;;;;;;;;;12.71;100.00;97381.58;109863;1245;60206;-69
2023/05/27 02:53:01;;;;;;;12.40;11.10;;;;;;;12.68;100.00;97381.97;110088;1244;59682;-70
2023/05/27 02:55:30;;;;;;;14.40;12.50;;;;;;;12.69;100.00;97380.75;110083;1244;70928;-70
2023/05/27 02:58:00;;;;;;;12.90;11.10;;;;;;;12.69;100.00;97384.02;109779;1244;68503;-70
2023/05/27 03:00:32;;;;;;;13.70;10.90;;;;;;;12.69;100.00;97382.64;110061;1244;69210;-70
2023/05/27 03:03:05;;;;;;;12.00;10.10;;;;;;;12.70;100.00;97385.98;110146;1244;59760;-70
2023/05/27 03:05:36;;;;;;;11.90;10.20;;;;;;;12.73;100.00;97389.96;110004;1245;59676;-69
2023/05/27 03:08:05;;;;;;;10.80;9.40;;;;;;;12.78;100.00;97387.87;110185;1244;71448;-69
2023/05/27 03:10:35;;;;;;;11.60;9.50;;;;;;;12.84;100.00;97385.83;110127;1241;69223;-69
2023/05/27 03:13:05;;;;;;;12.50;10.50;;;;;;;12.90;100.00;97386.70;110110;1244;67699;-70
2023/05/27 03:15:35;;;;;;;12.30;10.30;;;;;;;12.96;100.00;97387.71;109804;1247;59747;-69
2023/05/27 03:18:06;;;;;;;12.20;10.20;;;;;;;13.04;100.00;97388.65;110071;1241;59750;-70
2023/05/27 03:20:36;;;;;;;11.20;9.90;;;;;;;13.13;100.00;97391.81;110109;1245;71602;-70
2023/05/27 03:23:06;;;;;;;11.90;10.20;;;;;;;13.20;100.00;97397.84;110165;1244;69348;-70
2023/05/27 03:25:35;;;;;;;14.40;10.60;;;;;;;13.28;100.00;97399.15;110116;1244;68710;-68
2023/05/27 03:28:05;;;;;;;12.00;10.80;;;;;;;13.31;100.00;97403.13;109863;1245;59745;-69
2023/05/27 03:30:33;;;;;;;10.70;9.10;;;;;;;13.35;100.00;97406.42;109925;1245;59715;-70
2023/05/27 03:33:03;;;;;;;9.80;8.80;;;;;;;13.38;100.00;97407.56;110054;1245;71860;-70
2023/05/27 03:35:36;;;;;;;10.10;9.10;;;;;;;13.39;100.00;97409.23;109984;1245;69572;-70
2023/05/27 03:38:05;;;;;;;9.40;8.10;;;;;;;13.44;100.00;97414.77;109756;1245;69225;-69
2023/05/27 03:40:33;;;;;;;11.60;10.10;;;;;;;13.49;100.00;97416.98;109897;1245;59653;-69
2023/05/27 03:43:04;;;;;;;11.60;10.40;;;;;;;13.56;100.00;97418.11;110095;1244;59684;-71
2023/05/27 03:45:34;;;;;;;12.30;10.20;;;;;;;13.60;100.00;97418.11;109765;1245;69836;-70
2023/05/27 03:48:02;;;;;;;11.40;10.00;;;;;;;13.65;100.00;97417.54;109789;1241;68493;-70
2023/05/27 03:50:33;;;;;;;11.20;9.80;;;;;;;13.68;100.00;97420.52;110114;1244;69131;-70
2023/05/27 03:53:02;;;;;;;10.70;9.50;;;;;;;13.72;100.00;97416.73;110105;1244;59731;-69
2023/05/27 03:55:31;;;;;;;10.30;9.20;;;;;;;13.79;100.00;97418.99;110144;1245;59694;-69
2023/05/27 03:58:00;;;;;;;11.90;10.30;;;;;;;13.85;100.00;97419.02;109781;1245;71409;-67
2023/05/27 04:00:30;;;;;;;12.90;10.10;;;;;;;13.92;100.00;97418.40;109775;1247;69221;-69
2023/05/27 04:02:59;;;;;;;12.50;10.40;;;;;;;14.01;100.00;97422.33;110021;1244;69306;-69
2023/05/27 04:05:28;;;;;;;10.50;9.30;;;;;;;14.10;100.00;97423.63;109766;1244;59705;-69
2023/05/27 04:07:56;;;;;;;11.60;9.40;;;;;;;14.24;100.00;97425.59;110067;1244;59971;-71
2023/05/27 04:10:25;;;;;;;10.90;9.80;;;;;;;14.38;100.00;97422.23;110122;1242;69805;-69
2023/05/27 04:12:56;;;;;;;11.50;10.30;;;;;;;14.51;100.00;97423.88;109947;1241;67706;-70
2023/05/27 04:15:26;;;;;;;11.40;9.50;;;;;;;14.62;100.00;97429.39;110111;1244;68789;-70
2023/05/27 04:17:54;;;;;;;11.80;9.70;;;;;;;14.74;100.00;97428.19;110122;1244;59683;-70
2023/05/27 04:20:23;;;;;;;10.70;9.30;;;;;;;14.85;100.00;97426.89;110162;1241;59724;-69
2023/05/27 04:22:54;;;;;;;12.00;10.80;;;;;;;14.97;99.04;97429.25;109812;1248;71581;-69
2023/05/27 04:25:24;;;;;;;12.50;10.70;;;;;;;15.08;98.20;97433.88;109873;1245;68834;-69
2023/05/27 04:28:15;;;;;;;12.50;9.50;;;;;;;15.18;96.24;97434.52;110100;1245;69647;-69
2023/05/27 04:30:45;;;;;;;10.80;9.60;;;;;;;15.31;92.66;97434.61;110131;1244;59682;-69
2023/05/27 04:33:19;;;;;;;10.50;9.20;;;;;;;15.43;90.20;97435.28;110159;1244;59702;-71
2023/05/27 04:35:48;;;;;;;11.80;10.60;;;;;;;15.58;88.81;97435.95;109807;1243;71403;-71
2023/05/27 04:38:20;;;;;;;9.80;8.80;;;;;;;15.73;88.90;97438.27;110123;1244;69284;-70
2023/05/27 04:40:54;;;;;;;10.70;9.60;;;;;;;15.92;89.29;97430.23;110247;1241;70251;-69
2023/05/27 04:43:43;;;;;;;11.10;9.90;;;;;;;16.11;89.75;97429.13;110052;1244;59696;-69
2023/05/27 04:46:14;;;;;;;9.50;8.50;;;;;;;16.27;89.69;97432.86;110054;1245;59691;-68
2023/05/27 04:48:44;;;;;;;10.50;9.30;;;;;;;16.44;88.77;97432.84;109892;1247;71504;-70
2023/05/27 04:51:15;;;;;;;10.30;8.50;;;;;;;16.61;88.77;97430.79;109925;1246;70184;-69
2023/05/27 04:53:44;;;;;;;11.40;9.00;;;;;;;16.76;87.25;97435.01;110104;1244;69131;-69
2023/05/27 04:56:14;;;;;;;11.00;9.80;;;;;;;16.88;85.03;97438.45;109809;1243;59672;-68
2023/05/27 04:58:46;;;;;;;13.00;10.30;;;;;;;16.97;85.33;97438.26;109898;1244;59694;-68
2023/05/27 05:01:20;;;;;;;11.90;10.70;;;;;;;16.99;84.87;97436.96;109775;1243;71838;-68
2023/05/27 05:04:13;;;;;;;9.40;8.50;;;;;;;17.11;84.89;97435.05;110068;1244;69673;-69
2023/05/27 05:06:48;;;;;;;9.80;8.80;;;;;;;17.53;85.47;97437.40;110153;1241;69246;-69
2023/05/27 05:09:15;;;;;;;9.00;8.10;;;;;;;17.89;80.43;97434.24;109940;1246;59700;-68
2023/05/27 05:11:44;;;;;;;9.50;8.60;;;;;;;18.39;82.45;97438.65;110155;1244;59676;-71
2023/05/27 05:14:12;;;;;;;10.70;9.60;;;;;;;18.86;76.12;97433.34;110152;1243;71411;-71
2023/05/27 05:16:40;;;;;;;8.70;7.90;;;;;;;19.27;76.12;97434.25;109956;1245;68786;-72
2023/05/27 05:19:11;;;;;;;10.90;9.10;;;;;;;19.74;73.38;97434.35;110095;1244;69190;-69
2023/05/27 05:21:39;;;;;;;11.50;8.90;;;;;;;19.88;70.31;97436.64;109821;1247;59753;-69
2023/05/27 05:24:09;;;;;;;9.00;8.10;;;;;;;20.00;69.66;97439.59;109803;1245;59691;-70
2023/05/27 05:26:37;;;;;;;9.80;8.50;;;;;;;20.01;68.72;97436.84;109967;1244;71982;-70
2023/05/27 05:29:05;;;;;;;9.00;8.00;;;;;;;20.07;68.17;97436.48;109787;1244;69841;-70
2023/05/27 05:31:33;;;;;;;9.70;7.70;;;;;;;20.20;69.04;97437.30;109800;1246;69263;-69
2023/05/27 05:34:02;;;;;;;10.00;8.60;;;;;;;20.24;67.88;97436.02;110146;1241;59727;-69
2023/05/27 05:36:33;;;;;;;8.70;7.90;;;;;;;20.17;67.38;97436.45;109806;1245;59719;-70
2023/05/27 05:39:05;;;;;;;8.90;7.90;;;;;;;20.19;68.18;97440.52;110072;1244;70848;-70
2023/05/27 05:41:33;;;;;;;9.20;8.00;;;;;;;20.20;68.28;97441.35;109773;1243;68522;-69
2023/05/27 05:44:02;;;;;;;8.50;7.70;;;;;;;20.16;68.43;97439.05;110121;1244;69128;-70
2023/05/27 05:46:30;;;;;;;9.50;7.60;;;;;;;20.09;68.10;97442.85;109994;1245;59759;-70
2023/05/27 05:48:57;;;;;;;9.40;8.40;;;;;;;19.87;67.34;97442.52;110007;1245;59673;-69
2023/05/27 05:51:35;;;;;;;9.90;8.90;;;;;;;19.63;68.14;97439.79;110110;1243;71770;-70
2023/05/27 05:54:03;;;;;;;11.20;9.30;;;;;;;19.47;68.58;97441.43;109978;1245;68415;-69
2023/05/27 05:56:33;;;;;;;9.10;8.10;;;;;;;19.44;69.51;97440.21;109797;1246;69317;-69
2023/05/27 05:59:01;;;;;;;8.80;7.80;;;;;;;19.58;70.77;97441.52;109780;1244;60095;-68
2023/05/27 06:01:32;;;;;;;8.90;8.00;;;;;;;19.81;70.36;97447.55;110142;1243;59720;-68
2023/05/27 06:04:04;;;;;;;9.50;8.50;;;;;;;19.80;69.05;97453.13;109785;1241;70552;-70
2023/05/27 06:06:37;;;;;;;10.80;9.70;;;;;;;19.73;68.75;97459.31;110103;1245;69458;-70
2023/05/27 06:09:25;;;;;;;8.90;8.10;;;;;;;19.56;68.10;97463.67;110041;1243;68919;-70
2023/05/27 06:11:55;;;;;;;10.70;8.50;;;;;;;19.54;68.67;97464.73;110135;1243;59757;-69
2023/05/27 06:14:23;;;;;;;10.20;9.10;;;;;;;19.64;69.19;97467.20;110103;1244;59625;-67
2023/05/27 06:16:53;;;;;;;9.50;8.60;;;;;;;19.79;66.86;97466.79;109790;1244;71408;-69
2023/05/27 06:19:22;;;;;;;11.00;8.10;;;;;;;20.04;66.12;97469.80;110151;1241;68479;-69
2023/05/27 06:21:51;;;;;;;9.10;8.20;;;;;;;20.16;65.75;97466.94;110094;1241;69146;-69
2023/05/27 06:24:25;;;;;;;8.10;7.30;;;;;;;20.45;66.22;97469.44;110136;1242;59750;-68
2023/05/27 06:27:01;;;;;;;9.20;8.10;;;;;;;20.79;65.27;97469.67;109902;1245;60117;-69
2023/05/27 06:29:30;;;;;;;9.30;8.30;;;;;;;20.99;64.04;97473.23;110128;1241;70365;-69
2023/05/27 06:31:58;;;;;;;9.50;8.50;;;;;;;21.23;63.57;97473.48;109820;1246;68145;-69
2023/05/27 06:34:27;;;;;;;9.30;8.40;;;;;;;21.35;61.48;97472.11;110172;1244;69080;-70
2023/05/27 06:36:55;;;;;;;11.90;8.60;;;;;;;21.66;60.71;97468.98;109870;1248;59748;-70
2023/05/27 06:39:23;;;;;;;8.70;7.80;;;;;;;21.86;58.95;97466.45;109832;1241;59694;-68
2023/05/27 06:41:51;;;;;;;10.30;8.50;;;;;;;22.13;57.87;97469.49;109903;1248;71463;-70
2023/05/27 06:44:42;;;;;;;10.90;8.60;;;;;;;22.53;57.04;97469.72;109890;1241;69355;-69
2023/05/27 06:47:22;;;;;;;8.20;7.20;;;;;;;22.83;55.86;97470.25;110144;1242;69101;-70
2023/05/27 06:49:50;;;;;;;8.00;7.30;;;;;;;23.11;55.60;97467.69;109765;1243;59705;-70
2023/05/27 06:52:19;;;;;;;8.70;7.60;;;;;;;23.42;53.27;97464.77;110107;1245;59727;-70
2023/05/27 06:55:20;;;;;;;7.70;6.90;;;;;;;23.14;53.08;97470.38;109781;1241;71714;-69
2023/05/27 06:58:06;;;;;;;10.40;8.10;;;;;;;23.51;53.04;97466.54;110107;1244;69576;-68
2023/05/27 07:00:50;;;;;;;9.90;8.20;;;;;;;23.43;51.82;97464.51;109951;1245;69615;-69
2023/05/27 07:03:37;;;;;;;7.90;7.20;;;;;;;23.32;52.07;97464.40;109828;1246;59712;-69
2023/05/27 07:06:06;;;;;;;8.00;7.20;;;;;;;23.02;53.20;97462.33;109779;1244;59715;-68
2023/05/27 07:08:41;;;;;;;7.10;6.40;;;;;;;23.32;52.65;97459.97;109795;1241;71381;-67
2023/05/27 07:11:16;;;;;;;9.60;6.40;;;;;;;23.88;52.60;97458.25;110090;1244;69195;-68
2023/05/27 07:13:44;;;;;;;7.90;7.10;;;;;;;24.39;51.11;97460.34;109781;1246;69392;-68
2023/05/27 07:16:12;;;;;;;8.70;7.40;;;;;;;24.35;49.06;97456.50;110167;1244;59785;-69
2023/05/27 07:18:40;;;;;;;10.60;7.20;;;;;;;24.30;49.29;97459.17;110105;1242;59688;-69
2023/05/27 07:21:08;;;;;;;9.10;7.30;;;;;;;24.43;48.54;97458.04;109822;1241;71431;-69
2023/05/27 07:23:36;;;;;;;8.10;6.80;;;;;;;24.52;47.74;97454.74;109845;1245;69994;-69
2023/05/27 07:26:25;;;;;;;7.10;6.40;;;;;;;24.82;47.88;97454.73;110150;1243;69849;-68
2023/05/27 07:28:52;;;;;;;7.00;6.30;;;;;;;24.89;46.56;97445.83;109909;1245;59754;-68
2023/05/27 07:31:46;;;;;;;8.30;6.80;;;;;;;25.23;46.51;97447.15;109841;1244;59692;-69
2023/05/27 07:34:15;;;;;;;7.20;6.50;;;;;;;25.40;45.04;97447.40;109850;1245;71325;-69
2023/05/27 07:36:43;;;;;;;7.30;6.50;;;;;;;25.64;45.44;97445.11;110002;1244;69388;-68
2023/05/27 07:39:11;;;;;;;7.60;6.80;;;;;;;25.46;43.35;97442.84;110133;1244;69861;-69
2023/05/27 07:41:41;;;;;;;7.10;6.40;;;;;;;25.82;44.77;97440.10;110130;1241;59720;-71
2023/05/27 07:44:08;;;;;;;8.30;7.50;;;;;;;26.22;44.31;97447.98;110143;1244;59687;-70
2023/05/27 07:46:38;;;;;;;7.30;6.60;;;;;;;26.12;42.78;97444.14;110100;1241;71675;-71
2023/05/27 07:49:06;;;;;;;6.20;5.70;;;;;;;25.80;43.35;97443.02;110140;1244;69931;-69
2023/05/27 07:51:40;;;;;;;7.60;6.20;;;;;;;25.99;43.67;97442.92;110113;1243;69281;-69
2023/05/27 07:54:08;;;;;;;7.00;6.30;;;;;;;26.37;43.17;97448.45;109821;1244;59722;-70
2023/05/27 07:56:36;;;;;;;8.50;6.40;;;;;;;26.69;41.61;97443.11;110287;1244;59676;-68
2023/05/27 07:59:04;;;;;;;7.80;6.30;;;;;;;26.85;41.72;97443.99;110133;1243;72013;-71
2023/05/27 08:01:32;;;;;;;6.90;6.30;;;;;;;27.02;40.80;97439.66;110186;1244;68478;-70
2023/05/27 08:04:01;;;;;;;6.50;5.90;;;;;;;27.18;40.25;97432.73;109933;1243;69448;-71
2023/05/27 08:07:19;;;;;;;6.60;6.00;;;;;;;26.98;39.60;97433.11;109937;1244;59770;-70
2023/05/27 08:09:51;;;;;;;6.60;5.90;;;;;;;26.69;39.52;97433.30;110139;1244;59695;-69
2023/05/27 08:12:55;;;;;;;6.40;5.80;;;;;;;26.03;40.22;97435.83;109708;1243;71970;-76
2023/05/27 08:15:32;;;;;;;7.30;6.50;;;;;;;26.45;40.67;97433.79;110121;1244;69783;-70
2023/05/27 08:18:16;;;;;;;7.40;6.70;;;;;;;26.89;39.97;97436.27;109960;1245;68320;-69
2023/05/27 08:21:02;;;;;;;12.90;7.00;;;;;;;26.71;39.53;97436.15;110092;1244;59741;-69
2023/05/27 08:23:45;;;;;;;8.10;6.90;;;;;;;26.74;39.87;97435.59;110167;1245;59745;-69
2023/05/27 08:26:51;;;;;;;7.20;6.30;;;;;;;26.23;40.55;97434.64;109533;1249;71224;-70
2023/05/27 08:29:27;;;;;;;7.40;6.30;;;;;;;26.02;40.53;97432.21;109449;1248;69566;-69
2023/05/27 08:32:15;;;;;;;7.20;6.50;;;;;;;25.25;43.18;97430.41;109502;1243;69887;-69
2023/05/27 08:34:44;;;;;;;6.10;5.50;;;;;;;25.88;42.89;97430.49;110112;1242;59683;-69
2023/05/27 08:37:12;;;;;;;6.30;5.70;;;;;;;26.41;41.80;97429.85;110128;1241;59698;-70
2023/05/27 08:39:42;;;;;;;7.50;6.50;;;;;;;26.86;39.63;97427.41;110264;1241;71344;-69
2023/05/27 08:42:25;;;;;;;6.90;6.20;;;;;;;27.27;39.82;97425.31;110107;1244;70533;-70
2023/05/27 08:44:53;;;;;;;7.10;6.10;;;;;;;27.59;38.13;97416.75;110147;1241;69929;-70
2023/05/27 08:47:22;;;;;;;6.50;5.90;;;;;;;27.96;38.47;97411.71;110277;1245;59709;-69
2023/05/27 08:49:51;;;;;;;6.60;5.90;;;;;;;28.09;37.31;97410.13;109824;1246;59679;-69
2023/05/27 08:52:22;;;;;;;6.80;5.90;;;;;;;27.69;37.32;97404.63;109813;1241;71860;-70
2023/05/27 08:54:50;;;;;;;6.30;5.70;;;;;;;27.38;38.00;97404.42;109950;1245;68459;-69
2023/05/27 08:57:24;;;;;;;;;;;;;;;27.39;38.50;97400.78;110007;1244;69921;-70
2023/05/27 08:59:52;;;;;;;7.80;5.90;;;;;;;27.52;38.05;97402.18;110055;1246;59945;-70
2023/05/27 09:02:21;;;;;;;6.20;5.50;;;;;;;27.92;37.87;97400.95;109949;1245;59684;-70
2023/05/27 09:04:50;;;;;;;6.50;5.80;;;;;;;28.22;37.59;97399.49;110068;1246;71541;-70
2023/05/27 09:07:22;;;;;;;5.60;5.10;;;;;;;28.60;37.19;97397.08;110137;1244;70206;-70
2023/05/27 09:09:57;;;;;;;5.80;5.30;;;;;;;29.06;36.95;97402.13;110148;1244;69193;-70
2023/05/27 09:12:27;;;;;;;8.80;6.50;;;;;;;29.01;36.14;97401.88;110211;1241;59695;-72
2023/05/27 09:14:54;;;;;;;6.20;5.60;;;;;;;28.42;36.23;97396.92;110267;1241;59691;-70
2023/05/27 09:17:23;;;;;;;6.10;5.60;;;;;;;28.42;36.82;97395.88;110199;1241;70846;-69
2023/05/27 09:19:51;;;;;;;;;;;;;;;28.43;36.38;97392.48;110108;1244;69773;-70
2023/05/27 09:22:29;;;;;;;5.90;5.30;;;;;;;28.57;35.67;97390.02;110090;1244;69767;-69
2023/05/27 09:24:58;;;;;;;5.60;5.10;;;;;;;28.75;35.40;97384.70;110085;1244;59752;-69
2023/05/27 09:27:30;;;;;;;6.00;4.40;;;;;;;29.01;34.93;97386.91;110085;1243;59740;-70
2023/05/27 09:30:07;;;;;;;4.80;4.40;;;;;;;29.15;33.85;97382.67;110167;1244;71362;-69
2023/05/27 09:32:34;;;;;;;5.40;4.90;;;;;;;29.31;33.80;97379.02;110140;1244;68257;-70
2023/05/27 09:35:07;;;;;;;5.60;5.10;;;;;;;29.04;33.47;97375.95;110078;1241;68553;-69
2023/05/27 09:37:35;;;;;;;6.80;5.30;;;;;;;28.58;33.39;97372.36;110090;1244;59731;-70
2023/05/27 09:40:10;;;;;;;;;;;;;;;28.65;32.36;97368.79;110180;1244;59682;-70
2023/05/27 09:42:49;;;;;;;5.40;4.60;;;;;;;28.86;33.11;97360.20;110199;1241;71867;-69
2023/05/27 09:45:20;;;;;;;4.60;4.20;;;;;;;29.44;33.82;97354.36;110133;1241;67337;-69
2023/05/27 09:47:50;;;;;;;4.60;4.10;;;;;;;29.58;33.40;97345.92;110132;1244;70022;-69
2023/05/27 09:50:20;;;;;;;6.60;6.00;;;;;;;29.57;33.00;97341.59;110084;1244;59696;-70
2023/05/27 09:52:49;;;;;;;5.30;4.80;;;;;;;29.45;32.80;97336.39;110108;1244;59691;-71
2023/05/27 09:55:33;;;;;;;4.90;4.50;;;;;;;29.55;32.24;97335.14;110061;1244;71313;-70
2023/05/27 09:58:01;;;;;;;5.60;5.10;;;;;;;30.00;32.95;97337.05;110145;1244;68516;-70
2023/05/27 10:00:31;;;;;;;5.40;4.90;;;;;;;30.19;33.27;97338.33;110156;1244;69379;-69
2023/05/27 10:03:00;;;;;;;7.30;5.50;;;;;;;30.39;33.08;97334.42;110382;1242;59769;-68
2023/05/27 10:05:30;;;;;;;4.50;4.10;;;;;;;30.79;32.93;97333.90;109956;1246;59740;-69
2023/05/27 10:07:57;;;;;;;7.30;5.50;;;;;;;30.99;31.75;97327.34;110164;1243;72076;-70
2023/05/27 10:10:41;;;;;;;5.10;4.60;;;;;;;31.15;32.23;97324.27;110162;1244;68871;-69
2023/05/27 10:13:09;;;;;;;6.20;5.60;;;;;;;31.24;31.80;97319.41;110131;1241;69774;-69
2023/05/27 10:15:37;;;;;;;5.60;4.60;;;;;;;31.02;31.47;97316.98;110232;1241;59689;-69
2023/05/27 10:18:10;;;;;;;4.80;4.30;;;;;;;30.72;31.62;97321.02;110124;1244;59709;-69
2023/05/27 10:20:42;;;;;;;5.20;4.70;;;;;;;30.48;31.60;97320.18;110151;1244;71404;-69
2023/05/27 10:23:26;;;;;;;5.50;5.00;;;;;;;29.97;31.43;97317.52;110101;1243;68728;-70
2023/05/27 10:26:08;;;;;;;5.30;4.80;;;;;;;29.73;32.51;97315.61;110051;1241;69340;-69
2023/05/27 10:28:39;;;;;;;4.90;4.40;;;;;;;29.02;32.94;97312.77;110126;1244;59697;-69
2023/05/27 10:31:09;;;;;;;5.00;4.60;;;;;;;29.05;31.90;97309.41;110147;1244;59695;-70
2023/05/27 10:33:49;;;;;;;4.10;3.70;;;;;;;29.10;32.15;97308.15;110118;1245;70656;-70
2023/05/27 10:36:36;;;;;;;5.80;4.80;;;;;;;28.79;32.12;97310.09;109905;1246;68648;-70
2023/05/27 10:39:06;;;;;;;4.80;4.30;;;;;;;28.50;32.66;97306.33;110145;1244;69705;-70
2023/05/27 10:41:48;;;;;;;5.80;4.70;;;;;;;28.37;34.45;97305.22;110117;1244;59738;-70
2023/05/27 10:44:25;;;;;;;6.50;5.60;;;;;;;27.72;37.42;97316.37;109618;1243;707617;-69
2023/05/27 10:47:05;;;;;;;6.00;5.40;;;;;;;26.98;38.82;97321.47;110106;1244;71510;-69
2023/05/27 10:49:35;;;;;;;6.10;5.10;;;;;;;26.30;43.21;97334.33;110124;1245;69327;-69
2023/05/27 10:52:16;;;;;;;5.70;5.20;;;;;;;25.62;46.70;97343.86;110141;1244;69442;-68
2023/05/27 10:54:52;;;;;;;7.30;6.50;;;;;;;24.75;50.95;97345.48;110147;1244;60023;-68
2023/05/27 10:57:22;;;;;;;6.50;5.90;;;;;;;24.12;51.55;97346.78;110159;1244;59685;-69
2023/05/27 10:59:55;;;;;;;7.40;6.60;;;;;;;23.26;51.64;97345.86;110233;1241;71921;-70
2023/05/27 11:02:31;;;;;;;7.00;5.60;;;;;;;22.69;52.87;97336.50;110162;1244;69224;-69
2023/05/27 11:04:58;;;;;;;5.40;4.80;;;;;;;21.81;54.62;97342.68;110138;1244;70287;-69
2023/05/27 11:07:27;;;;;;;6.70;5.10;;;;;;;21.21;56.51;97345.94;110159;1245;59705;-70
2023/05/27 11:09:55;;;;;;;6.80;6.20;;;;;;;20.46;58.14;97359.39;110104;1244;59672;-69
2023/05/27 11:12:24;;;;;;;7.50;5.80;;;;;;;19.70;59.93;97367.69;110078;1243;72211;-68
2023/05/27 11:14:54;;;;;;;7.20;6.30;;;;;;;19.11;60.84;97368.70;110098;1244;69855;-68
2023/05/27 11:17:23;;;;;;;6.20;5.50;;;;;;;18.65;63.93;97375.73;110112;1244;69114;-69
2023/05/27 11:19:51;;;;;;;8.30;7.20;;;;;;;18.38;66.53;97387.77;110101;1243;59717;-69
2023/05/27 11:22:19;;;;;;;7.70;5.90;;;;;;;18.12;66.25;97392.05;110077;1245;59698;-69
2023/05/27 11:25:00;;;;;;;7.40;6.00;;;;;;;17.84;66.82;97390.73;110131;1243;71311;-69
2023/05/27 11:27:39;;;;;;;7.80;6.90;;;;;;;17.61;68.92;97390.96;110134;1244;69185;-69
2023/05/27 11:30:11;;;;;;;6.50;5.80;;;;;;;17.44;70.16;97397.26;110111;1244;69816;-69
2023/05/27 11:32:41;;;;;;;7.90;5.90;;;;;;;17.21;72.73;97397.95;110118;1241;59742;-69
2023/05/27 11:35:14;;;;;;;6.50;4.90;;;;;;;17.00;72.16;97403.46;110169;1244;59699;-69
2023/05/27 11:37:46;;;;;;;5.20;4.20;;;;;;;16.79;70.95;97416.09;110150;1244;70795;-69
2023/05/27 11:40:14;;;;;;;5.90;4.90;;;;;;;16.55;72.61;97415.59;110194;1244;69825;-69
2023/05/27 11:42:46;;;;;;;5.10;4.60;;;;;;;16.29;75.42;97420.84;110144;1249;69771;-70
2023/05/27 11:45:18;;;;;;;4.80;3.80;;;;;;;16.11;82.08;97430.90;110172;1244;59681;-69